createdAt,value
2018-05-10T00:00:17.411Z,8.63
2018-05-10T00:02:45.499Z,9.47
2018-05-10T00:05:13.103Z,9.05
2018-05-10T00:07:40.641Z,8.40
2018-05-10T00:10:08.954Z,10.17
2018-05-10T00:12:36.547Z,10.13
2018-05-10T00:15:04.117Z,11.40
2018-05-10T00:17:31.687Z,9.87
2018-05-10T00:19:59.267Z,8.30
2018-05-10T00:22:26.830Z,10.13
2018-05-10T00:24:54.390Z,8.77
2018-05-10T00:27:21.997Z,8.90
2018-05-10T00:29:50.466Z,9.05
2018-05-10T00:32:18.102Z,9.17
2018-05-10T00:34:45.719Z,13.13
2018-05-10T00:37:13.278Z,9.67
2018-05-10T00:39:40.832Z,9.83
2018-05-10T00:42:08.422Z,11.20
2018-05-10T00:44:36.004Z,10.10
2018-05-10T00:47:03.590Z,10.57
2018-05-10T00:49:31.173Z,9.80
2018-05-10T00:51:58.756Z,10.38
2018-05-10T00:54:39.099Z,9.32
2018-05-10T00:57:06.676Z,8.82
2018-05-10T00:59:34.276Z,10.43
2018-05-10T01:02:02.658Z,10.45
2018-05-10T01:04:30.241Z,10.88
2018-05-10T01:06:57.818Z,10.40
2018-05-10T01:09:26.199Z,9.77
2018-05-10T01:11:54.542Z,11.65
2018-05-10T01:14:22.127Z,10.48
2018-05-10T01:16:49.752Z,11.15
2018-05-10T01:19:17.344Z,9.93
2018-05-10T01:21:44.913Z,9.40
2018-05-10T01:24:12.510Z,8.93
2018-05-10T01:26:40.095Z,10.48
2018-05-10T01:29:07.679Z,10.07
2018-05-10T01:31:35.274Z,11.05
2018-05-10T01:34:03.617Z,9.73
2018-05-10T01:36:31.239Z,11.88
2018-05-10T01:38:59.614Z,10.00
2018-05-10T01:41:27.194Z,11.20
2018-05-10T01:43:54.773Z,8.57
2018-05-10T01:46:22.385Z,9.75
2018-05-10T01:48:49.958Z,9.95
2018-05-10T01:51:17.531Z,10.43
2018-05-10T01:53:45.140Z,8.48
2018-05-10T01:56:12.748Z,10.13
2018-05-10T01:58:41.088Z,8.02
2018-05-10T02:01:08.694Z,8.85
2018-05-10T02:03:36.274Z,9.52
2018-05-10T02:06:03.855Z,9.27
2018-05-10T02:08:32.217Z,8.55
2018-05-10T02:10:59.810Z,8.65
2018-05-10T02:13:27.395Z,11.02
2018-05-10T02:15:55.843Z,8.60
2018-05-10T02:18:23.444Z,10.05
2018-05-10T02:20:51.116Z,11.35
2018-05-10T02:23:18.741Z,8.50
2018-05-10T02:25:46.368Z,8.98
2018-05-10T02:28:13.959Z,10.90
2018-05-10T02:30:42.528Z,11.05
2018-05-10T02:33:10.110Z,8.93
2018-05-10T02:35:37.695Z,8.55
2018-05-10T02:38:06.073Z,13.62
2018-05-10T02:40:33.650Z,10.70
2018-05-10T02:43:01.240Z,9.63
2018-05-10T02:45:29.611Z,9.07
2018-05-10T02:47:57.199Z,9.43
2018-05-10T02:50:25.547Z,11.40
2018-05-10T02:52:53.163Z,10.95
2018-05-10T02:55:21.520Z,10.15
2018-05-10T02:57:49.112Z,11.25
2018-05-10T03:00:16.722Z,14.63
2018-05-10T03:02:44.298Z,10.75
2018-05-10T03:05:11.882Z,13.00
2018-05-10T03:07:39.491Z,9.35
2018-05-10T03:10:07.155Z,9.60
2018-05-10T03:12:34.738Z,11.07
2018-05-10T03:15:02.358Z,10.90
2018-05-10T03:17:29.934Z,9.52
2018-05-10T03:19:57.510Z,8.73
2018-05-10T03:22:25.101Z,9.07
2018-05-10T03:24:52.749Z,11.88
2018-05-10T03:27:20.336Z,9.00
2018-05-10T03:29:47.947Z,10.77
2018-05-10T03:32:15.540Z,9.95
2018-05-10T03:34:43.113Z,10.02
2018-05-10T03:37:10.747Z,9.68
2018-05-10T03:39:38.323Z,9.07
2018-05-10T03:42:05.906Z,15.32
2018-05-10T03:44:33.551Z,9.70
2018-05-10T03:47:01.882Z,11.60
2018-05-10T03:49:29.457Z,12.32
2018-05-10T03:51:57.053Z,9.07
2018-05-10T03:54:24.628Z,9.07
2018-05-10T03:56:52.974Z,13.27
2018-05-10T03:59:20.603Z,13.70
2018-05-10T04:01:48.966Z,10.80
2018-05-10T04:04:29.243Z,10.98
2018-05-10T04:07:08.678Z,11.63
2018-05-10T04:09:48.167Z,12.80
2018-05-10T04:12:16.509Z,14.50
2018-05-10T04:14:44.087Z,13.02
2018-05-10T04:17:11.715Z,13.30
2018-05-10T04:19:39.303Z,13.73
2018-05-10T04:22:06.886Z,12.02
2018-05-10T04:24:34.499Z,12.52
2018-05-10T04:27:02.099Z,13.43
2018-05-10T04:29:30.445Z,11.02
2018-05-10T04:31:58.065Z,11.90
2018-05-10T04:34:26.409Z,10.90
2018-05-10T04:36:54.251Z,14.75
2018-05-10T04:39:22.399Z,12.95
2018-05-10T04:41:50.016Z,11.77
2018-05-10T04:44:18.345Z,11.77
2018-05-10T04:46:45.922Z,13.60
2018-05-10T04:49:13.498Z,10.82
2018-05-10T04:51:41.085Z,11.00
2018-05-10T04:54:09.474Z,11.82
2018-05-10T04:56:37.029Z,10.97
2018-05-10T04:59:04.602Z,11.60
2018-05-10T05:01:32.195Z,11.73
2018-05-10T05:03:59.767Z,10.43
2018-05-10T05:06:27.327Z,14.40
2018-05-10T05:08:54.972Z,12.32
2018-05-10T05:11:23.295Z,11.47
2018-05-10T05:13:50.867Z,11.10
2018-05-10T05:16:18.450Z,13.10
2018-05-10T05:18:46.006Z,12.10
2018-05-10T05:21:13.568Z,10.40
2018-05-10T05:23:41.166Z,11.67
2018-05-10T05:26:08.740Z,11.40
2018-05-10T05:28:36.301Z,11.13
2018-05-10T05:31:03.895Z,10.73
2018-05-10T05:33:31.441Z,11.40
2018-05-10T05:35:59.020Z,11.40
2018-05-10T05:38:26.616Z,11.10
2018-05-10T05:40:54.179Z,9.73
2018-05-10T05:43:21.812Z,11.90
2018-05-10T05:45:49.463Z,9.93
2018-05-10T05:48:17.796Z,11.23
2018-05-10T05:50:45.356Z,10.10
2018-05-10T05:53:12.943Z,8.40
2018-05-10T05:55:40.505Z,14.23
2018-05-10T05:58:08.067Z,8.73
2018-05-10T06:00:35.953Z,8.20
2018-05-10T06:03:03.740Z,8.43
2018-05-10T06:05:31.351Z,10.43
2018-05-10T06:07:58.953Z,10.23
2018-05-10T06:10:27.279Z,8.77
2018-05-10T06:12:55.063Z,7.93
2018-05-10T06:15:22.703Z,7.23
2018-05-10T06:17:50.249Z,9.83
2018-05-10T06:20:17.802Z,6.23
2018-05-10T06:22:45.398Z,11.93
2018-05-10T06:25:13.037Z,9.43
2018-05-10T06:27:40.513Z,7.80
2018-05-10T06:30:08.162Z,8.13
2018-05-10T06:32:35.723Z,6.90
2018-05-10T06:35:04.178Z,8.23
2018-05-10T06:37:31.763Z,9.00
2018-05-10T06:39:59.317Z,9.17
2018-05-10T06:42:26.863Z,8.37
2018-05-10T06:44:54.505Z,9.93
2018-05-10T06:47:22.063Z,7.87
2018-05-10T06:49:50.398Z,7.33
2018-05-10T06:52:17.980Z,9.90
2018-05-10T06:54:45.587Z,5.50
2018-05-10T06:57:13.137Z,7.30
2018-05-10T06:59:40.743Z,5.87
2018-05-10T07:02:09.132Z,7.60
2018-05-10T07:04:37.447Z,7.00
2018-05-10T07:07:05.032Z,8.30
2018-05-10T07:09:32.684Z,9.70
2018-05-10T07:12:00.171Z,6.87
2018-05-10T07:14:27.759Z,7.87
2018-05-10T07:16:55.320Z,7.90
2018-05-10T07:19:22.873Z,7.60
2018-05-10T07:21:51.238Z,7.77
2018-05-10T07:24:18.792Z,8.60
2018-05-10T07:26:46.350Z,8.90
2018-05-10T07:29:13.957Z,6.97
2018-05-10T07:31:41.494Z,7.10
2018-05-10T07:34:09.056Z,8.50
2018-05-10T07:36:36.641Z,7.60
2018-05-10T07:39:04.219Z,6.83
2018-05-10T07:41:31.778Z,6.77
2018-05-10T07:43:59.362Z,10.47
2018-05-10T07:46:26.914Z,7.83
2018-05-10T07:48:54.464Z,7.37
2018-05-10T07:51:22.816Z,9.20
2018-05-10T07:53:50.380Z,7.70
2018-05-10T07:56:17.949Z,7.50
2018-05-10T07:58:45.571Z,9.53
2018-05-10T08:01:13.879Z,8.63
2018-05-10T08:03:41.439Z,9.13
2018-05-10T08:06:09.006Z,8.23
2018-05-10T08:08:37.332Z,10.10
2018-05-10T08:11:04.947Z,10.33
2018-05-10T08:13:32.532Z,10.77
2018-05-10T08:16:00.842Z,10.80
2018-05-10T08:18:28.409Z,10.37
2018-05-10T08:20:56.750Z,9.77
2018-05-10T08:23:24.314Z,9.17
2018-05-10T08:25:52.408Z,10.90
2018-05-10T08:28:19.996Z,6.83
2018-05-10T08:30:47.551Z,9.73
2018-05-10T08:33:15.103Z,10.17
2018-05-10T08:35:42.687Z,11.23
2018-05-10T08:38:10.231Z,7.57
2018-05-10T08:40:40.793Z,11.70
2018-05-10T08:43:08.474Z,9.23
2018-05-10T08:45:36.027Z,8.83
2018-05-10T08:48:03.586Z,10.77
2018-05-10T08:50:31.160Z,8.30
2018-05-10T08:52:58.720Z,11.10
2018-05-10T08:55:27.044Z,9.80
2018-05-10T08:57:54.627Z,11.13
2018-05-10T09:00:22.183Z,12.93
2018-05-10T09:02:49.756Z,10.63
2018-05-10T09:05:17.334Z,9.47
2018-05-10T09:07:44.880Z,8.47
2018-05-10T09:10:13.208Z,9.60
2018-05-10T09:12:40.788Z,11.20
2018-05-10T09:15:08.395Z,10.43
2018-05-10T09:17:35.959Z,10.07
2018-05-10T09:20:03.567Z,9.63
2018-05-10T09:22:31.132Z,12.33
2018-05-10T09:24:58.711Z,9.17
2018-05-10T09:27:26.296Z,12.47
2018-05-10T09:29:53.859Z,12.10
2018-05-10T09:32:21.412Z,9.80
2018-05-10T09:34:49.774Z,8.63
2018-05-10T09:37:17.331Z,8.80
2018-05-10T09:39:44.883Z,8.37
2018-05-10T09:42:12.463Z,9.30
2018-05-10T09:44:40.020Z,9.23
2018-05-10T09:47:07.576Z,12.30
2018-05-10T09:49:35.926Z,7.33
2018-05-10T09:52:03.471Z,8.30
2018-05-10T09:54:31.025Z,7.27
2018-05-10T09:56:58.615Z,8.97
2018-05-10T09:59:26.183Z,12.33
2018-05-10T10:01:53.746Z,8.83
2018-05-10T10:04:21.334Z,7.40
2018-05-10T10:06:48.898Z,9.50
2018-05-10T10:09:16.460Z,12.03
2018-05-10T10:11:44.046Z,10.30
2018-05-10T10:14:11.616Z,14.87
2018-05-10T10:16:39.179Z,10.87
2018-05-10T10:19:06.760Z,9.90
2018-05-10T10:21:34.317Z,11.37
2018-05-10T10:24:01.862Z,10.20
2018-05-10T10:26:29.451Z,11.63
2018-05-10T10:28:57.792Z,10.67
2018-05-10T10:31:25.355Z,13.23
2018-05-10T10:33:52.951Z,14.67
2018-05-10T10:36:20.524Z,8.70
2018-05-10T10:38:48.085Z,8.70
2018-05-10T10:41:15.670Z,11.80
2018-05-10T10:43:43.219Z,9.03
2018-05-10T10:46:10.764Z,7.70
2018-05-10T10:48:38.347Z,8.83
2018-05-10T10:51:05.898Z,9.33
2018-05-10T10:53:34.210Z,9.97
2018-05-10T10:56:01.783Z,8.73
2018-05-10T10:58:29.339Z,8.57
2018-05-10T11:00:57.766Z,9.63
2018-05-10T11:03:25.339Z,8.00
2018-05-10T11:05:52.903Z,7.63
2018-05-10T11:08:20.454Z,7.80
2018-05-10T11:10:48.067Z,7.70
2018-05-10T11:13:15.703Z,8.13
2018-05-10T11:15:43.254Z,8.23
2018-05-10T11:18:11.594Z,8.97
2018-05-10T11:20:39.139Z,8.20
2018-05-10T11:23:06.697Z,9.17
2018-05-10T11:25:35.044Z,9.37
2018-05-10T11:28:02.596Z,8.40
2018-05-10T11:30:30.160Z,9.03
2018-05-10T11:32:57.791Z,9.40
2018-05-10T11:35:25.309Z,9.63
2018-05-10T11:37:52.869Z,8.37
2018-05-10T11:40:20.455Z,9.00
2018-05-10T11:42:48.010Z,11.17
2018-05-10T11:45:15.575Z,9.17
2018-05-10T11:47:43.925Z,13.13
2018-05-10T11:50:11.476Z,8.87
2018-05-10T11:52:39.022Z,11.40
2018-05-10T11:55:06.595Z,8.27
2018-05-10T11:57:34.146Z,8.60
2018-05-10T12:00:02.563Z,8.60
2018-05-10T12:02:30.198Z,10.10
2018-05-10T12:04:57.709Z,8.10
2018-05-10T12:07:25.259Z,7.80
2018-05-10T12:09:53.602Z,9.17
2018-05-10T12:12:21.203Z,8.80
2018-05-10T12:14:48.755Z,9.40
2018-05-10T12:17:16.343Z,8.70
2018-05-10T12:19:43.910Z,10.90
2018-05-10T12:22:11.464Z,10.00
2018-05-10T12:24:39.055Z,8.43
2018-05-10T12:27:06.601Z,8.90
2018-05-10T12:29:34.151Z,10.90
2018-05-10T12:32:01.735Z,8.27
2018-05-10T12:34:29.289Z,8.60
2018-05-10T12:36:56.833Z,8.03
2018-05-10T12:39:24.408Z,10.57
2018-05-10T12:41:51.964Z,16.23
2018-05-10T12:44:19.556Z,7.93
2018-05-10T12:46:47.921Z,7.60
2018-05-10T12:49:15.462Z,7.30
2018-05-10T12:51:43.016Z,10.77
2018-05-10T12:54:10.584Z,8.27
2018-05-10T12:56:38.138Z,9.83
2018-05-10T12:59:06.456Z,7.20
2018-05-10T13:01:34.032Z,7.93
2018-05-10T13:04:01.590Z,7.57
2018-05-10T13:06:29.909Z,7.43
2018-05-10T13:08:57.507Z,6.70
2018-05-10T13:11:25.228Z,8.00
2018-05-10T13:14:02.969Z,8.33
2018-05-10T13:16:30.528Z,8.50
2018-05-10T13:18:58.090Z,7.43
2018-05-10T13:21:26.449Z,8.57
2018-05-10T13:23:54.116Z,8.70
2018-05-10T13:26:21.735Z,8.03
2018-05-10T13:28:50.151Z,8.33
2018-05-10T13:31:18.439Z,10.27
2018-05-10T13:33:45.984Z,7.40
2018-05-10T13:36:14.327Z,7.10
2018-05-10T13:38:41.995Z,8.70
2018-05-10T13:41:09.551Z,8.03
2018-05-10T13:43:37.141Z,9.60
2018-05-10T13:46:04.687Z,9.07
2018-05-10T13:48:32.255Z,8.60
2018-05-10T13:50:59.830Z,7.53
2018-05-10T13:53:27.387Z,11.73
2018-05-10T13:55:55.697Z,8.10
2018-05-10T13:58:23.335Z,8.73
2018-05-10T14:00:50.951Z,9.10
2018-05-10T14:03:18.499Z,9.43
2018-05-10T14:05:46.075Z,10.03
2018-05-10T14:08:14.434Z,9.07
2018-05-10T14:10:41.980Z,12.57
2018-05-10T14:13:09.755Z,10.40
2018-05-10T14:15:37.324Z,11.70
2018-05-10T14:18:04.909Z,10.10
2018-05-10T14:20:32.491Z,9.40
2018-05-10T14:23:00.046Z,9.60
2018-05-10T14:25:29.348Z,9.70
2018-05-10T14:27:56.897Z,8.43
2018-05-10T14:30:24.530Z,9.23
2018-05-10T14:32:52.050Z,8.93
2018-05-10T14:35:19.651Z,13.47
2018-05-10T14:37:47.194Z,8.90
2018-05-10T14:40:14.746Z,9.20
2018-05-10T14:42:43.110Z,8.53
2018-05-10T14:45:10.680Z,9.87
2018-05-10T14:47:38.234Z,7.10
2018-05-10T14:50:05.814Z,10.83
2018-05-10T14:52:33.376Z,8.57
2018-05-10T14:55:00.935Z,8.20
2018-05-10T14:57:28.502Z,9.40
2018-05-10T14:59:56.055Z,7.67
2018-05-10T15:02:23.622Z,9.23
2018-05-10T15:04:51.991Z,7.17
2018-05-10T15:07:19.568Z,8.10
2018-05-10T15:09:47.930Z,8.57
2018-05-10T15:12:15.478Z,7.10
2018-05-10T15:14:43.022Z,8.10
2018-05-10T15:17:11.334Z,7.23
2018-05-10T15:19:38.925Z,8.00
2018-05-10T15:22:06.467Z,7.10
2018-05-10T15:24:34.024Z,7.73
2018-05-10T15:27:02.385Z,7.50
2018-05-10T15:29:29.981Z,9.43
2018-05-10T15:31:58.307Z,6.90
2018-05-10T15:34:26.036Z,8.80
2018-05-10T15:36:53.617Z,8.73
2018-05-10T15:39:21.956Z,8.77
2018-05-10T15:41:49.544Z,10.27
2018-05-10T15:44:17.115Z,10.10
2018-05-10T15:46:44.675Z,8.97
2018-05-10T15:49:12.250Z,7.27
2018-05-10T15:51:39.802Z,8.87
2018-05-10T15:54:07.351Z,10.23
2018-05-10T15:56:35.694Z,6.90
2018-05-10T15:59:03.247Z,7.30
2018-05-10T16:01:30.813Z,10.60
2018-05-10T16:03:58.398Z,9.00
2018-05-10T16:06:25.955Z,8.20
2018-05-10T16:08:53.506Z,7.40
2018-05-10T16:11:21.967Z,6.50
2018-05-10T16:13:50.530Z,7.67
2018-05-10T16:16:18.946Z,9.03
2018-05-10T16:18:46.766Z,7.63
2018-05-10T16:21:15.084Z,7.70
2018-05-10T16:23:42.846Z,7.13
2018-05-10T16:26:10.561Z,5.53
2018-05-10T16:28:38.220Z,6.13
2018-05-10T16:31:05.958Z,7.10
2018-05-10T16:33:33.658Z,8.97
2018-05-10T16:36:01.341Z,6.43
2018-05-10T16:38:29.018Z,8.67
2018-05-10T16:40:56.902Z,7.73
2018-05-10T16:43:24.581Z,8.80
2018-05-10T16:45:52.183Z,7.90
2018-05-10T16:48:19.820Z,6.53
2018-05-10T16:50:47.398Z,6.43
2018-05-10T16:53:15.004Z,6.53
2018-05-10T16:55:42.644Z,7.10
2018-05-10T16:58:10.430Z,8.50
2018-05-10T17:00:38.083Z,6.73
2018-05-10T17:03:05.670Z,6.93
2018-05-10T17:05:33.230Z,6.07
2018-05-10T17:08:00.782Z,7.53
2018-05-10T17:10:29.122Z,6.83
2018-05-10T17:12:56.867Z,7.90
2018-05-10T17:15:25.218Z,6.33
2018-05-10T17:17:52.890Z,7.82
2018-05-10T17:20:20.494Z,7.30
2018-05-10T17:22:48.055Z,7.93
2018-05-10T17:25:16.407Z,7.13
2018-05-10T17:27:44.394Z,6.83
2018-05-10T17:30:12.218Z,7.10
2018-05-10T17:32:39.831Z,7.23
2018-05-10T17:35:07.390Z,7.90
2018-05-10T17:37:34.938Z,7.27
2018-05-10T17:40:02.507Z,8.00
2018-05-10T17:42:30.838Z,8.40
2018-05-10T17:44:58.393Z,9.43
2018-05-10T17:47:25.978Z,8.53
2018-05-10T17:49:53.535Z,9.43
2018-05-10T17:52:21.107Z,8.23
2018-05-10T17:54:48.768Z,9.23
2018-05-10T17:57:16.313Z,8.77
2018-05-10T17:59:43.866Z,9.63
2018-05-10T18:02:11.448Z,8.00
2018-05-10T18:04:39.017Z,7.57
2018-05-10T18:07:06.577Z,8.37
2018-05-10T18:09:34.183Z,7.60
2018-05-10T18:12:01.730Z,9.07
2018-05-10T18:14:29.281Z,8.67
2018-05-10T18:16:56.866Z,8.53
2018-05-10T18:19:24.423Z,8.27
2018-05-10T18:21:51.994Z,9.13
2018-05-10T18:24:19.600Z,8.40
2018-05-10T18:26:47.152Z,9.07
2018-05-10T18:29:14.714Z,9.30
2018-05-10T18:31:42.324Z,9.30
2018-05-10T18:34:09.883Z,9.00
2018-05-10T18:36:37.480Z,9.03
2018-05-10T18:39:06.021Z,12.90
2018-05-10T18:41:35.027Z,9.40
2018-05-10T18:44:04.234Z,11.30
2018-05-10T18:46:38.172Z,11.80
2018-05-10T18:49:09.324Z,11.23
2018-05-10T18:51:39.261Z,8.90
2018-05-10T18:54:07.859Z,10.23
2018-05-10T18:56:36.939Z,10.70
2018-05-10T18:59:09.333Z,10.37
2018-05-10T19:01:38.207Z,10.10
2018-05-10T19:04:06.456Z,9.10
2018-05-10T19:06:35.900Z,9.73
2018-05-10T19:09:07.989Z,9.20
2018-05-10T19:11:39.770Z,9.43
2018-05-10T19:14:08.313Z,8.53
2018-05-10T19:16:36.885Z,9.53
2018-05-10T19:19:08.123Z,7.80
2018-05-10T19:21:36.252Z,8.47
2018-05-10T19:24:03.867Z,8.40
2018-05-10T19:26:32.320Z,8.07
2018-05-10T19:28:59.807Z,9.50
2018-05-10T19:31:27.367Z,10.10
2018-05-10T19:33:55.005Z,12.33
2018-05-10T19:36:22.729Z,10.77
2018-05-10T19:38:51.915Z,8.70
2018-05-10T19:41:19.561Z,8.73
2018-05-10T19:43:47.248Z,9.87
2018-05-10T19:46:14.799Z,8.97
2018-05-10T19:48:43.142Z,10.70
2018-05-10T19:51:10.777Z,9.67
2018-05-10T19:53:38.340Z,10.40
2018-05-10T19:56:06.694Z,8.73
2018-05-10T19:58:34.250Z,9.40
2018-05-10T20:01:01.801Z,11.20
2018-05-10T20:03:29.609Z,10.17
2018-05-10T20:05:57.207Z,9.50
2018-05-10T20:08:25.973Z,10.07
2018-05-10T20:10:53.605Z,11.43
2018-05-10T20:13:21.223Z,12.47
2018-05-10T20:15:48.812Z,12.40
2018-05-10T20:18:16.403Z,14.50
2018-05-10T20:20:43.972Z,18.20
2018-05-10T20:23:11.681Z,17.40
2018-05-10T20:25:39.449Z,21.60
2018-05-10T20:28:07.220Z,24.73
2018-05-10T20:30:34.797Z,28.30
2018-05-10T20:33:03.149Z,26.37
2018-05-10T20:35:30.789Z,29.20
2018-05-10T20:37:58.590Z,37.43
2018-05-10T20:40:26.718Z,38.07
2018-05-10T20:42:55.232Z,44.37
2018-05-10T20:45:22.812Z,35.80
2018-05-10T20:47:50.410Z,42.87
2018-05-10T20:50:17.974Z,46.67
2018-05-10T20:52:45.631Z,45.33
2018-05-10T20:55:13.535Z,52.97
2018-05-10T20:57:41.442Z,45.23
2018-05-10T21:00:09.238Z,42.20
2018-05-10T21:02:37.102Z,36.93
2018-05-10T21:05:05.514Z,37.30
2018-05-10T21:07:33.099Z,40.30
2018-05-10T21:10:01.888Z,35.37
2018-05-10T21:12:41.268Z,38.20
2018-05-10T21:15:08.922Z,41.50
2018-05-10T21:17:36.485Z,37.27
2018-05-10T21:20:04.055Z,34.90
2018-05-10T21:22:32.411Z,39.83
2018-05-10T21:24:59.959Z,42.30
2018-05-10T21:27:27.622Z,42.90
2018-05-10T21:29:55.215Z,41.87
2018-05-10T21:32:23.077Z,37.57
2018-05-10T21:34:50.678Z,44.90
2018-05-10T21:37:18.271Z,41.37
2018-05-10T21:39:46.623Z,40.70
2018-05-10T21:42:14.174Z,39.37
2018-05-10T21:44:42.600Z,41.63
2018-05-10T21:47:10.892Z,45.43
2018-05-10T21:49:50.631Z,45.67
2018-05-10T21:52:18.277Z,46.10
2018-05-10T21:54:46.652Z,45.10
2018-05-10T21:57:14.263Z,44.63
2018-05-10T21:59:41.843Z,39.33
2018-05-10T22:02:09.439Z,37.45
2018-05-10T22:04:37.017Z,42.00
2018-05-10T22:07:04.597Z,45.43
2018-05-10T22:09:32.445Z,34.53
2018-05-10T22:12:01.163Z,41.92
2018-05-10T22:14:29.062Z,40.57
2018-05-10T22:16:56.676Z,42.92
2018-05-10T22:19:25.033Z,40.83
2018-05-10T22:21:53.423Z,37.30
2018-05-10T22:24:21.793Z,39.92
2018-05-10T22:26:49.709Z,32.80
2018-05-10T22:29:17.486Z,32.53
2018-05-10T22:31:45.345Z,39.10
2018-05-10T22:34:13.735Z,33.25
2018-05-10T22:36:42.086Z,31.98
2018-05-10T22:39:09.684Z,35.30
2018-05-10T22:41:37.484Z,30.35
2018-05-10T22:44:06.095Z,30.52
2018-05-10T22:46:33.660Z,34.60
2018-05-10T22:49:02.051Z,35.40
2018-05-10T22:51:30.402Z,30.88
2018-05-10T22:53:57.989Z,32.47
2018-05-10T22:56:25.623Z,29.98
2018-05-10T22:58:53.238Z,33.38
2018-05-10T23:01:20.868Z,33.45
2018-05-10T23:03:48.473Z,32.95
2018-05-10T23:06:16.160Z,28.38
2018-05-10T23:08:43.694Z,31.60
2018-05-10T23:11:11.303Z,30.58
2018-05-10T23:13:38.898Z,34.22
2018-05-10T23:16:07.270Z,32.25
2018-05-10T23:18:34.867Z,33.35
2018-05-10T23:21:03.259Z,29.85
2018-05-10T23:23:31.741Z,28.15
2018-05-10T23:26:00.107Z,27.58
2018-05-10T23:28:27.683Z,30.73
2018-05-10T23:30:55.265Z,28.50
2018-05-10T23:33:22.871Z,28.27
2018-05-10T23:35:50.459Z,31.05
2018-05-10T23:38:18.063Z,24.98
2018-05-10T23:40:45.644Z,28.35
2018-05-10T23:43:13.262Z,30.30
2018-05-10T23:45:41.619Z,25.17
2018-05-10T23:48:09.231Z,25.52
2018-05-10T23:50:36.832Z,29.90
2018-05-10T23:53:04.426Z,28.75
2018-05-10T23:55:32.030Z,25.17
2018-05-10T23:57:59.628Z,26.00
